createdAt,value
2023-04-05T00:02:29.109Z,-4.47
2023-04-05T00:07:53.801Z,-4.54
2023-04-05T00:13:18.145Z,-4.56
2023-04-05T00:18:42.002Z,-4.58
2023-04-05T00:24:06.149Z,-4.70
2023-04-05T00:29:28.429Z,-4.66
2023-04-05T00:34:50.948Z,-4.56
2023-04-05T00:40:14.419Z,-4.57
2023-04-05T00:45:36.833Z,-4.47
2023-04-05T00:51:00.712Z,-4.59
2023-04-05T00:56:24.654Z,-4.82
2023-04-05T01:01:50.947Z,-4.92
2023-04-05T01:07:42.489Z,-4.91
2023-04-05T01:13:05.790Z,-4.02
2023-04-05T01:18:28.164Z,-3.43
2023-04-05T01:24:01.896Z,-3.24
2023-04-05T01:29:32.414Z,-3.20
2023-04-05T01:35:14.929Z,-3.39
2023-04-05T01:40:39.060Z,-3.65
2023-04-05T01:46:03.008Z,-3.78
2023-04-05T01:51:26.060Z,-3.84
2023-04-05T01:56:48.605Z,-3.77
2023-04-05T02:02:11.403Z,-3.55
2023-04-05T02:07:34.222Z,-3.31
2023-04-05T02:12:56.904Z,-3.37
2023-04-05T02:23:52.208Z,-3.26
2023-04-05T02:29:14.458Z,-3.35
2023-04-05T02:34:38.403Z,-3.37
2023-04-05T02:40:00.883Z,-3.44
2023-04-05T02:45:23.417Z,-3.52
2023-04-05T02:50:46.303Z,-3.54
2023-04-05T02:56:15.323Z,-3.57
2023-04-05T03:01:38.302Z,-3.55
2023-04-05T03:07:02.366Z,-3.87
2023-04-05T03:12:24.664Z,-4.17
2023-04-05T03:17:46.928Z,-4.27
2023-04-05T03:23:09.210Z,-4.40
2023-04-05T03:28:34.000Z,-4.24
2023-04-05T03:34:06.192Z,-4.08
2023-04-05T03:39:29.553Z,-3.90
2023-04-05T03:44:51.774Z,-3.62
2023-04-05T03:50:14.787Z,-3.48
2023-04-05T03:55:38.263Z,-3.44
2023-04-05T04:01:00.584Z,-3.43
2023-04-05T04:06:25.805Z,-3.49
2023-04-05T04:11:48.115Z,-3.51
2023-04-05T04:17:10.920Z,-3.51
2023-04-05T04:22:37.811Z,-3.43
2023-04-05T04:28:01.994Z,-3.38
2023-04-05T04:33:24.408Z,-3.32
2023-04-05T04:38:48.029Z,-3.28
2023-04-05T04:44:12.738Z,-3.19
2023-04-05T04:49:34.999Z,-3.12
2023-04-05T04:54:57.868Z,-3.03
2023-04-05T05:00:21.694Z,-2.95
2023-04-05T05:05:50.708Z,-2.84
2023-04-05T05:11:14.574Z,-2.75
2023-04-05T05:16:37.430Z,-2.64
2023-04-05T05:21:59.840Z,-2.55
2023-04-05T05:27:22.494Z,-2.44
2023-04-05T05:32:44.804Z,-2.32
2023-04-05T05:38:09.692Z,-2.18
2023-04-05T05:43:31.397Z,-2.05
2023-04-05T05:48:53.667Z,-1.94
2023-04-05T05:54:16.235Z,-1.75
2023-04-05T05:59:39.131Z,-1.61
2023-04-05T06:05:02.450Z,-1.39
2023-04-05T06:10:26.085Z,-1.20
2023-04-05T06:15:49.362Z,-1.05
2023-04-05T06:21:13.330Z,-0.83
2023-04-05T06:26:37.880Z,-0.68
2023-04-05T06:32:02.156Z,-0.54
2023-04-05T06:37:25.650Z,-0.48
2023-04-05T06:42:48.584Z,-0.30
2023-04-05T06:48:12.958Z,-0.09
2023-04-05T06:53:35.663Z,0.14
2023-04-05T06:59:00.358Z,0.27
2023-04-05T07:04:24.759Z,0.43
2023-04-05T07:09:48.413Z,0.54
2023-04-05T07:15:12.981Z,0.77
2023-04-05T07:20:35.405Z,0.73
2023-04-05T07:25:59.492Z,0.97
2023-04-05T07:31:22.438Z,1.00
2023-04-05T07:36:45.305Z,0.97
2023-04-05T07:42:08.244Z,1.16
2023-04-05T07:47:31.559Z,1.59
2023-04-05T07:52:55.042Z,1.59
2023-04-05T07:58:18.059Z,1.63
2023-04-05T08:03:40.556Z,1.38
2023-04-05T08:09:05.987Z,1.76
2023-04-05T08:14:28.963Z,1.93
2023-04-05T08:19:52.988Z,2.05
2023-04-05T08:25:15.933Z,2.22
2023-04-05T08:30:39.560Z,2.12
2023-04-05T08:36:02.212Z,2.31
2023-04-05T08:41:43.581Z,2.62
2023-04-05T08:47:08.518Z,2.44
2023-04-05T08:52:32.384Z,2.25
2023-04-05T08:57:59.372Z,2.61
2023-04-05T09:03:28.576Z,2.25
2023-04-05T09:08:51.410Z,1.95
2023-04-05T09:14:18.039Z,1.97
2023-04-05T09:19:40.759Z,2.06
2023-04-05T09:25:04.788Z,2.54
2023-04-05T09:30:37.491Z,2.88
2023-04-05T09:36:01.922Z,3.56
2023-04-05T09:41:26.767Z,4.00
2023-04-05T09:46:50.651Z,4.24
2023-04-05T09:52:15.268Z,4.60
2023-04-05T09:57:44.091Z,4.20
2023-04-05T10:03:08.333Z,4.52
2023-04-05T10:08:32.058Z,2.80
2023-04-05T10:13:55.787Z,2.44
2023-04-05T10:19:21.671Z,2.33
2023-04-05T10:24:55.691Z,2.75
2023-04-05T10:30:24.399Z,3.20
2023-04-05T10:36:28.287Z,3.90
2023-04-05T10:41:58.626Z,4.79
2023-04-05T10:47:23.880Z,7.09
2023-04-05T10:52:49.702Z,7.15
2023-04-05T10:58:13.412Z,7.78
2023-04-05T11:03:56.129Z,8.65
2023-04-05T11:09:30.676Z,8.73
2023-04-05T11:14:56.795Z,7.97
2023-04-05T11:20:24.223Z,5.99
2023-04-05T11:25:50.029Z,6.08
2023-04-05T11:31:24.053Z,6.76
2023-04-05T11:36:58.186Z,7.26
2023-04-05T11:42:24.733Z,9.11
2023-04-05T11:47:48.776Z,10.17
2023-04-05T11:53:28.870Z,11.05
2023-04-05T11:58:51.672Z,8.52
2023-04-05T12:04:15.528Z,6.82
2023-04-05T12:09:37.785Z,6.14
2023-04-05T12:15:02.221Z,6.15
2023-04-05T12:20:30.646Z,5.60
2023-04-05T12:25:54.501Z,4.32
2023-04-05T12:31:17.183Z,4.33
2023-04-05T12:36:43.691Z,4.79
2023-04-05T12:42:13.700Z,4.39
2023-04-05T12:47:36.814Z,5.33
2023-04-05T12:53:09.347Z,5.61
2023-04-05T12:58:40.685Z,5.55
2023-04-05T13:04:14.700Z,6.30
2023-04-05T13:09:28.937Z,5.64
2023-04-05T13:14:51.443Z,5.58
2023-04-05T13:20:14.693Z,5.74
2023-04-05T13:25:37.266Z,5.79
2023-04-05T13:31:00.200Z,5.51
2023-04-05T13:36:23.222Z,5.31
2023-04-05T13:41:46.099Z,5.08
2023-04-05T13:47:08.624Z,5.16
2023-04-05T13:52:32.035Z,5.03
2023-04-05T13:57:55.292Z,5.00
2023-04-05T14:03:18.411Z,4.89
2023-04-05T14:08:40.907Z,4.80
2023-04-05T14:14:04.158Z,4.69
2023-04-05T14:19:26.565Z,4.65
2023-04-05T14:24:48.979Z,4.13
2023-04-05T14:30:13.584Z,4.03
2023-04-05T14:35:36.103Z,4.73
2023-04-05T14:40:59.093Z,4.83
2023-04-05T14:46:22.247Z,5.46
2023-04-05T14:51:45.750Z,6.83
2023-04-05T14:57:08.093Z,7.14
2023-04-05T15:02:31.198Z,5.74
2023-04-05T15:07:53.668Z,5.46
2023-04-05T15:13:16.286Z,5.79
2023-04-05T15:18:39.286Z,6.94
2023-04-05T15:24:02.659Z,7.77
2023-04-05T15:29:25.370Z,6.69
2023-04-05T15:34:48.470Z,6.25
2023-04-05T15:40:11.320Z,4.81
2023-04-05T15:45:34.282Z,4.70
2023-04-05T15:50:56.543Z,4.49
2023-04-05T15:56:19.037Z,4.26
2023-04-05T16:01:43.554Z,3.85
2023-04-05T16:07:11.537Z,4.15
2023-04-05T16:12:35.200Z,3.90
2023-04-05T16:17:59.272Z,3.88
2023-04-05T16:23:22.373Z,4.80
2023-04-05T16:28:45.190Z,4.98
2023-04-05T16:34:08.526Z,4.98
2023-04-05T16:39:31.498Z,4.18
2023-04-05T16:44:54.588Z,3.55
2023-04-05T16:50:18.152Z,3.10
2023-04-05T16:55:41.453Z,2.99
2023-04-05T17:01:04.494Z,2.93
2023-04-05T17:06:28.548Z,2.84
2023-04-05T17:11:52.613Z,2.63
2023-04-05T17:17:15.757Z,2.56
2023-04-05T17:22:38.304Z,2.43
2023-04-05T17:28:00.655Z,2.34
2023-04-05T17:33:23.135Z,2.28
2023-04-05T17:38:46.813Z,2.13
2023-04-05T17:44:09.175Z,2.02
2023-04-05T17:49:31.638Z,1.95
2023-04-05T17:54:55.223Z,1.90
2023-04-05T18:00:18.688Z,1.85
2023-04-05T18:05:41.586Z,1.86
2023-04-05T18:11:10.614Z,1.79
2023-04-05T18:16:33.366Z,1.68
2023-04-05T18:21:56.197Z,1.61
2023-04-05T18:27:19.002Z,1.61
2023-04-05T18:32:41.951Z,1.51
2023-04-05T18:38:05.136Z,1.59
2023-04-05T18:43:27.736Z,1.54
2023-04-05T18:48:56.419Z,1.46
2023-04-05T18:54:19.344Z,1.44
2023-04-05T18:59:41.795Z,1.43
2023-04-05T19:05:04.921Z,1.42
2023-04-05T19:10:28.161Z,1.39
2023-04-05T19:15:51.767Z,1.36
2023-04-05T19:21:20.872Z,1.32
2023-04-05T19:26:43.372Z,1.29
2023-04-05T19:32:08.226Z,1.17
2023-04-05T19:37:31.279Z,1.10
2023-04-05T19:42:53.773Z,0.99
2023-04-05T19:48:36.722Z,0.90
2023-04-05T19:54:02.347Z,0.82
2023-04-05T19:59:43.868Z,0.77
2023-04-05T20:05:06.586Z,0.70
2023-04-05T20:10:32.370Z,0.61
2023-04-05T20:15:57.097Z,0.69
2023-04-05T20:21:19.556Z,0.68
2023-04-05T20:26:46.222Z,0.78
2023-04-05T20:32:08.634Z,0.71
2023-04-05T20:37:31.175Z,0.67
2023-04-05T20:42:53.531Z,0.65
2023-04-05T20:48:17.260Z,0.65
2023-04-05T20:53:40.614Z,0.64
2023-04-05T20:59:02.900Z,0.60
2023-04-05T21:04:26.195Z,0.68
2023-04-05T21:09:49.328Z,0.76
2023-04-05T21:15:11.829Z,0.80
2023-04-05T21:20:36.071Z,0.81
2023-04-05T21:25:58.984Z,0.87
2023-04-05T21:31:21.601Z,0.84
2023-04-05T21:36:44.298Z,0.65
2023-04-05T21:42:06.658Z,0.57
2023-04-05T21:47:29.046Z,0.32
2023-04-05T21:52:51.348Z,0.05
2023-04-05T21:58:13.736Z,-0.24
2023-04-05T22:03:36.017Z,-0.40
2023-04-05T22:08:58.313Z,-0.67
2023-04-05T22:14:21.223Z,-0.95
2023-04-05T22:19:44.226Z,-1.36
2023-04-05T22:25:06.826Z,-1.65
2023-04-05T22:30:37.213Z,-1.80
2023-04-05T22:35:53.447Z,-2.02
2023-04-05T22:41:16.647Z,-2.08
2023-04-05T22:46:39.027Z,-2.17
2023-04-05T22:52:02.550Z,-2.38
2023-04-05T22:57:24.848Z,-2.57
2023-04-05T23:02:47.186Z,-2.69
2023-04-05T23:08:10.213Z,-2.51
2023-04-05T23:13:33.093Z,-2.58
2023-04-05T23:18:55.345Z,-2.68
2023-04-05T23:24:17.915Z,-2.73
2023-04-05T23:29:40.343Z,-2.72
2023-04-05T23:35:03.005Z,-2.60
2023-04-05T23:40:26.935Z,-2.44
2023-04-05T23:45:49.787Z,-2.19
2023-04-05T23:51:12.236Z,-2.14
2023-04-05T23:56:35.185Z,-2.04
